Decoded Metar for OICI (ILAM in IRAN) (IATA:N/A) | Meteo·Mobile Aviation Weather
aviador You're here:

OICI Decoded Metar

ILAM in IRAN
Report Time2018-11-19 05:00:00
UTC Time2018-11-19 05:26:35
Flight Rules vfr VFR
Wind110° at 04 kt
W.Decomp.*RWY 14: 3.3 kt HW 2.2 kt LCW
W.Rank110° ranks 4
Current wind is below 110° avg. (4.8)
Visibility9999 m
Phenomena:N/A
Clouds:N/A
Expected CloudBase > 1,600 ft AGL from Temp-Dew spread
CeilingNone
Temp07°C (ISA +1)
Dew Point03°C (76% RH)
AAT4.1°C
QNH1022 hPa
Density Alt4,304 ft
Elevation4,403 ft
Report Wrong Elevation
Raw Report
METAR OICI 190500Z 11004KT CAVOK 07/03 Q1022 A3021=

Extra information for OICI:More info

Metar Taf Metar & Taf Last 4 Metars F.Rules Stats Wind Profile Meteogram Temp Stats Airport Information Weather charts Add Link Nearby VenuesMetar ALERT Operation Metar Decoded Social comments